sensor_id;sensor_type;location;lat;lon;timestamp;temperature;humidity
1361;DHT22;674;45.552;-122.600;2024-02-26T00:01:42;10.80;1.00
1361;DHT22;674;45.552;-122.600;2024-02-26T00:04:14;10.80;1.00
1361;DHT22;674;45.552;-122.600;2024-02-26T00:06:43;10.80;1.00
1361;DHT22;674;45.552;-122.600;2024-02-26T00:09:12;10.80;1.00
1361;DHT22;674;45.552;-122.600;2024-02-26T00:11:41;10.80;1.00
1361;DHT22;674;45.552;-122.600;2024-02-26T00:14:10;10.70;1.00
1361;DHT22;674;45.552;-122.600;2024-02-26T00:16:41;10.70;1.00
1361;DHT22;674;45.552;-122.600;2024-02-26T00:19:10;10.80;1.00
1361;DHT22;674;45.552;-122.600;2024-02-26T00:21:41;10.80;1.00
1361;DHT22;674;45.552;-122.600;2024-02-26T00:24:10;10.80;1.00
1361;DHT22;674;45.552;-122.600;2024-02-26T00:26:39;10.80;1.00
1361;DHT22;674;45.552;-122.600;2024-02-26T00:29:07;10.80;1.00
1361;DHT22;674;45.552;-122.600;2024-02-26T00:31:37;10.70;1.00
1361;DHT22;674;45.552;-122.600;2024-02-26T00:34:08;10.80;1.00
1361;DHT22;674;45.552;-122.600;2024-02-26T00:36:37;10.90;1.00
1361;DHT22;674;45.552;-122.600;2024-02-26T00:39:05;10.90;1.00
1361;DHT22;674;45.552;-122.600;2024-02-26T00:41:39;11.00;1.00
1361;DHT22;674;45.552;-122.600;2024-02-26T00:44:08;10.90;1.00
1361;DHT22;674;45.552;-122.600;2024-02-26T00:46:37;11.00;1.00
1361;DHT22;674;45.552;-122.600;2024-02-26T00:49:05;10.90;1.00
1361;DHT22;674;45.552;-122.600;2024-02-26T00:51:34;11.00;1.00
1361;DHT22;674;45.552;-122.600;2024-02-26T00:54:03;11.00;1.00
1361;DHT22;674;45.552;-122.600;2024-02-26T00:56:31;11.00;1.00
1361;DHT22;674;45.552;-122.600;2024-02-26T00:59:00;11.00;1.00
1361;DHT22;674;45.552;-122.600;2024-02-26T01:01:29;11.00;1.00
1361;DHT22;674;45.552;-122.600;2024-02-26T01:03:58;11.20;1.00
1361;DHT22;674;45.552;-122.600;2024-02-26T01:06:26;11.00;1.00
1361;DHT22;674;45.552;-122.600;2024-02-26T01:08:56;11.00;1.00
1361;DHT22;674;45.552;-122.600;2024-02-26T01:11:24;11.00;1.00
1361;DHT22;674;45.552;-122.600;2024-02-26T01:13:53;11.00;1.00
1361;DHT22;674;45.552;-122.600;2024-02-26T01:16:24;11.00;1.00
1361;DHT22;674;45.552;-122.600;2024-02-26T01:18:53;11.00;1.00
1361;DHT22;674;45.552;-122.600;2024-02-26T01:21:21;10.90;1.00
1361;DHT22;674;45.552;-122.600;2024-02-26T01:23:50;10.90;1.00
1361;DHT22;674;45.552;-122.600;2024-02-26T01:26:19;10.90;1.00
1361;DHT22;674;45.552;-122.600;2024-02-26T01:28:47;10.90;1.00
1361;DHT22;674;45.552;-122.600;2024-02-26T01:31:16;10.90;1.00
1361;DHT22;674;45.552;-122.600;2024-02-26T01:33:44;10.90;1.00
1361;DHT22;674;45.552;-122.600;2024-02-26T01:36:14;10.80;1.00
1361;DHT22;674;45.552;-122.600;2024-02-26T01:38:42;10.80;1.00
1361;DHT22;674;45.552;-122.600;2024-02-26T01:41:11;10.80;1.00
1361;DHT22;674;45.552;-122.600;2024-02-26T01:43:39;10.80;1.00
1361;DHT22;674;45.552;-122.600;2024-02-26T01:46:11;10.80;1.00
1361;DHT22;674;45.552;-122.600;2024-02-26T01:48:43;10.80;1.00
1361;DHT22;674;45.552;-122.600;2024-02-26T01:51:12;10.80;1.00
1361;DHT22;674;45.552;-122.600;2024-02-26T01:53:42;10.80;1.00
1361;DHT22;674;45.552;-122.600;2024-02-26T01:56:12;10.80;1.00
1361;DHT22;674;45.552;-122.600;2024-02-26T01:58:41;10.70;1.00
1361;DHT22;674;45.552;-122.600;2024-02-26T02:01:11;10.70;1.00
1361;DHT22;674;45.552;-122.600;2024-02-26T02:03:40;10.80;1.00
1361;DHT22;674;45.552;-122.600;2024-02-26T02:06:10;10.60;1.00
1361;DHT22;674;45.552;-122.600;2024-02-26T02:08:39;10.60;1.00
1361;DHT22;674;45.552;-122.600;2024-02-26T02:11:08;10.60;1.00
1361;DHT22;674;45.552;-122.600;2024-02-26T02:13:39;10.50;1.00
1361;DHT22;674;45.552;-122.600;2024-02-26T02:16:08;10.50;1.00
1361;DHT22;674;45.552;-122.600;2024-02-26T02:18:36;10.50;1.00
1361;DHT22;674;45.552;-122.600;2024-02-26T02:21:05;10.50;1.00
1361;DHT22;674;45.552;-122.600;2024-02-26T02:23:34;10.50;1.00
1361;DHT22;674;45.552;-122.600;2024-02-26T02:26:03;10.40;1.00
1361;DHT22;674;45.552;-122.600;2024-02-26T02:28:32;10.30;1.00
1361;DHT22;674;45.552;-122.600;2024-02-26T02:31:00;10.30;1.00
1361;DHT22;674;45.552;-122.600;2024-02-26T02:33:29;10.40;1.00
1361;DHT22;674;45.552;-122.600;2024-02-26T02:35:58;10.30;1.00
1361;DHT22;674;45.552;-122.600;2024-02-26T02:38:27;10.20;1.00
1361;DHT22;674;45.552;-122.600;2024-02-26T02:40:57;10.20;1.00
1361;DHT22;674;45.552;-122.600;2024-02-26T02:43:26;10.10;1.00
1361;DHT22;674;45.552;-122.600;2024-02-26T02:45:54;10.10;1.00
1361;DHT22;674;45.552;-122.600;2024-02-26T02:48:23;10.40;1.00
1361;DHT22;674;45.552;-122.600;2024-02-26T02:50:52;10.10;1.00
1361;DHT22;674;45.552;-122.600;2024-02-26T02:53:21;10.00;2.30
1361;DHT22;674;45.552;-122.600;2024-02-26T02:55:50;10.10;15.10
1361;DHT22;674;45.552;-122.600;2024-02-26T02:58:18;9.90;23.60
1361;DHT22;674;45.552;-122.600;2024-02-26T03:00:47;9.90;36.30
1361;DHT22;674;45.552;-122.600;2024-02-26T03:03:15;9.80;42.90
1361;DHT22;674;45.552;-122.600;2024-02-26T03:05:44;9.80;53.90
1361;DHT22;674;45.552;-122.600;2024-02-26T03:08:13;9.80;62.20
1361;DHT22;674;45.552;-122.600;2024-02-26T03:10:42;10.00;68.80
1361;DHT22;674;45.552;-122.600;2024-02-26T03:13:11;9.80;72.20
1361;DHT22;674;45.552;-122.600;2024-02-26T03:15:40;9.70;81.80
1361;DHT22;674;45.552;-122.600;2024-02-26T03:18:08;9.70;91.60
1361;DHT22;674;45.552;-122.600;2024-02-26T03:20:37;9.70;95.90
1361;DHT22;674;45.552;-122.600;2024-02-26T03:23:05;9.60;99.10
1361;DHT22;674;45.552;-122.600;2024-02-26T03:25:34;9.60;99.90
1361;DHT22;674;45.552;-122.600;2024-02-26T03:28:03;9.60;99.90
1361;DHT22;674;45.552;-122.600;2024-02-26T03:30:31;9.60;99.90
1361;DHT22;674;45.552;-122.600;2024-02-26T03:33:00;9.60;99.90
1361;DHT22;674;45.552;-122.600;2024-02-26T03:35:29;9.70;99.90
1361;DHT22;674;45.552;-122.600;2024-02-26T03:37:57;9.50;99.90
1361;DHT22;674;45.552;-122.600;2024-02-26T03:40:26;9.50;99.90
1361;DHT22;674;45.552;-122.600;2024-02-26T03:42:54;9.50;99.90
1361;DHT22;674;45.552;-122.600;2024-02-26T03:45:25;9.40;99.90
1361;DHT22;674;45.552;-122.600;2024-02-26T03:47:54;9.40;99.90
1361;DHT22;674;45.552;-122.600;2024-02-26T03:50:22;9.50;99.90
1361;DHT22;674;45.552;-122.600;2024-02-26T03:52:51;9.50;99.90
1361;DHT22;674;45.552;-122.600;2024-02-26T03:55:20;9.60;99.90
1361;DHT22;674;45.552;-122.600;2024-02-26T03:57:52;9.70;99.90
1361;DHT22;674;45.552;-122.600;2024-02-26T04:00:22;9.40;99.90
1361;DHT22;674;45.552;-122.600;2024-02-26T04:02:51;9.40;99.90
1361;DHT22;674;45.552;-122.600;2024-02-26T04:05:19;9.40;99.90
1361;DHT22;674;45.552;-122.600;2024-02-26T04:07:48;9.40;99.90
1361;DHT22;674;45.552;-122.600;2024-02-26T04:10:17;9.30;99.90
1361;DHT22;674;45.552;-122.600;2024-02-26T04:12:45;9.30;99.90
1361;DHT22;674;45.552;-122.600;2024-02-26T04:15:14;9.30;99.90
1361;DHT22;674;45.552;-122.600;2024-02-26T04:17:43;9.30;99.90
1361;DHT22;674;45.552;-122.600;2024-02-26T04:20:15;9.30;99.90
1361;DHT22;674;45.552;-122.600;2024-02-26T04:22:45;9.30;99.90
1361;DHT22;674;45.552;-122.600;2024-02-26T04:25:13;9.30;99.90
1361;DHT22;674;45.552;-122.600;2024-02-26T04:27:43;9.30;99.90
1361;DHT22;674;45.552;-122.600;2024-02-26T04:30:11;9.30;99.90
1361;DHT22;674;45.552;-122.600;2024-02-26T04:32:40;9.10;99.90
1361;DHT22;674;45.552;-122.600;2024-02-26T04:35:09;9.60;99.90
1361;DHT22;674;45.552;-122.600;2024-02-26T04:37:39;9.20;99.90
1361;DHT22;674;45.552;-122.600;2024-02-26T04:40:08;9.20;99.90
1361;DHT22;674;45.552;-122.600;2024-02-26T04:42:36;9.20;99.90
1361;DHT22;674;45.552;-122.600;2024-02-26T04:45:06;9.20;99.90
1361;DHT22;674;45.552;-122.600;2024-02-26T04:47:36;9.10;99.90
1361;DHT22;674;45.552;-122.600;2024-02-26T04:50:05;9.10;99.90
1361;DHT22;674;45.552;-122.600;2024-02-26T04:52:34;9.20;99.90
1361;DHT22;674;45.552;-122.600;2024-02-26T04:55:02;9.10;99.90
1361;DHT22;674;45.552;-122.600;2024-02-26T04:57:31;9.10;99.90
1361;DHT22;674;45.552;-122.600;2024-02-26T05:00:00;9.10;99.90
1361;DHT22;674;45.552;-122.600;2024-02-26T05:02:28;9.10;99.90
1361;DHT22;674;45.552;-122.600;2024-02-26T05:04:58;9.10;99.90
1361;DHT22;674;45.552;-122.600;2024-02-26T05:07:26;9.10;99.90
1361;DHT22;674;45.552;-122.600;2024-02-26T05:09:55;9.10;99.90
1361;DHT22;674;45.552;-122.600;2024-02-26T05:12:24;9.10;99.90
1361;DHT22;674;45.552;-122.600;2024-02-26T05:14:53;9.10;99.90
1361;DHT22;674;45.552;-122.600;2024-02-26T05:17:21;9.10;99.90
1361;DHT22;674;45.552;-122.600;2024-02-26T05:19:52;9.00;99.90
1361;DHT22;674;45.552;-122.600;2024-02-26T05:22:21;9.00;99.90
1361;DHT22;674;45.552;-122.600;2024-02-26T05:24:50;9.00;99.90
1361;DHT22;674;45.552;-122.600;2024-02-26T05:27:19;9.00;99.90
1361;DHT22;674;45.552;-122.600;2024-02-26T05:29:48;9.30;99.90
1361;DHT22;674;45.552;-122.600;2024-02-26T05:32:16;8.90;99.90
1361;DHT22;674;45.552;-122.600;2024-02-26T05:34:45;8.80;99.90
1361;DHT22;674;45.552;-122.600;2024-02-26T05:37:13;8.80;99.90
1361;DHT22;674;45.552;-122.600;2024-02-26T05:39:42;8.80;99.90
1361;DHT22;674;45.552;-122.600;2024-02-26T05:42:10;8.90;99.90
1361;DHT22;674;45.552;-122.600;2024-02-26T05:44:39;8.90;99.90
1361;DHT22;674;45.552;-122.600;2024-02-26T05:47:08;8.90;99.90
1361;DHT22;674;45.552;-122.600;2024-02-26T05:49:36;8.70;99.90
1361;DHT22;674;45.552;-122.600;2024-02-26T05:52:05;8.60;99.90
1361;DHT22;674;45.552;-122.600;2024-02-26T05:54:34;8.30;99.90
1361;DHT22;674;45.552;-122.600;2024-02-26T05:57:03;8.00;99.90
1361;DHT22;674;45.552;-122.600;2024-02-26T05:59:32;7.90;99.90
1361;DHT22;674;45.552;-122.600;2024-02-26T06:02:00;7.80;99.90
1361;DHT22;674;45.552;-122.600;2024-02-26T06:04:29;7.60;99.90
1361;DHT22;674;45.552;-122.600;2024-02-26T06:06:57;7.40;99.90
1361;DHT22;674;45.552;-122.600;2024-02-26T06:09:26;7.40;99.90
1361;DHT22;674;45.552;-122.600;2024-02-26T06:11:55;7.30;99.90
1361;DHT22;674;45.552;-122.600;2024-02-26T06:14:23;7.20;99.90
1361;DHT22;674;45.552;-122.600;2024-02-26T06:16:52;7.20;99.90
1361;DHT22;674;45.552;-122.600;2024-02-26T06:19:21;7.10;99.90
1361;DHT22;674;45.552;-122.600;2024-02-26T06:21:50;7.10;99.90
1361;DHT22;674;45.552;-122.600;2024-02-26T06:24:19;7.10;99.90
1361;DHT22;674;45.552;-122.600;2024-02-26T06:26:48;7.20;99.90
1361;DHT22;674;45.552;-122.600;2024-02-26T06:29:17;7.20;99.90
1361;DHT22;674;45.552;-122.600;2024-02-26T06:31:46;7.20;99.90
1361;DHT22;674;45.552;-122.600;2024-02-26T06:34:16;7.10;99.90
1361;DHT22;674;45.552;-122.600;2024-02-26T06:36:45;7.20;99.90
1361;DHT22;674;45.552;-122.600;2024-02-26T06:39:13;7.00;99.90
1361;DHT22;674;45.552;-122.600;2024-02-26T06:41:44;7.00;99.90
1361;DHT22;674;45.552;-122.600;2024-02-26T06:44:14;7.00;99.90
1361;DHT22;674;45.552;-122.600;2024-02-26T06:46:43;6.90;99.90
1361;DHT22;674;45.552;-122.600;2024-02-26T06:49:11;6.90;99.90
1361;DHT22;674;45.552;-122.600;2024-02-26T06:51:40;6.80;99.90
1361;DHT22;674;45.552;-122.600;2024-02-26T06:54:08;6.80;99.90
1361;DHT22;674;45.552;-122.600;2024-02-26T06:56:37;6.80;99.90
1361;DHT22;674;45.552;-122.600;2024-02-26T06:59:06;6.80;99.90
1361;DHT22;674;45.552;-122.600;2024-02-26T07:01:34;6.40;99.90
1361;DHT22;674;45.552;-122.600;2024-02-26T07:04:03;6.80;99.90
1361;DHT22;674;45.552;-122.600;2024-02-26T07:06:31;6.60;99.90
1361;DHT22;674;45.552;-122.600;2024-02-26T07:09:01;6.60;99.90
1361;DHT22;674;45.552;-122.600;2024-02-26T07:11:29;6.50;99.90
1361;DHT22;674;45.552;-122.600;2024-02-26T07:13:58;6.60;99.90
1361;DHT22;674;45.552;-122.600;2024-02-26T07:16:26;6.60;99.90
1361;DHT22;674;45.552;-122.600;2024-02-26T07:18:55;6.60;99.90
1361;DHT22;674;45.552;-122.600;2024-02-26T07:21:24;6.60;99.90
1361;DHT22;674;45.552;-122.600;2024-02-26T07:23:53;6.50;99.90
1361;DHT22;674;45.552;-122.600;2024-02-26T07:26:21;6.50;99.90
1361;DHT22;674;45.552;-122.600;2024-02-26T07:28:52;6.20;99.90
1361;DHT22;674;45.552;-122.600;2024-02-26T07:31:21;6.30;99.90
1361;DHT22;674;45.552;-122.600;2024-02-26T07:33:49;6.30;99.90
1361;DHT22;674;45.552;-122.600;2024-02-26T07:36:18;6.30;99.90
1361;DHT22;674;45.552;-122.600;2024-02-26T07:38:46;6.30;99.90
1361;DHT22;674;45.552;-122.600;2024-02-26T07:41:16;6.00;99.90
1361;DHT22;674;45.552;-122.600;2024-02-26T07:43:45;6.30;99.90
1361;DHT22;674;45.552;-122.600;2024-02-26T07:46:13;6.30;99.90
1361;DHT22;674;45.552;-122.600;2024-02-26T07:48:42;6.40;99.90
1361;DHT22;674;45.552;-122.600;2024-02-26T07:51:13;6.20;99.90
1361;DHT22;674;45.552;-122.600;2024-02-26T07:53:45;6.30;99.90
1361;DHT22;674;45.552;-122.600;2024-02-26T07:56:14;6.10;99.90
1361;DHT22;674;45.552;-122.600;2024-02-26T07:58:42;6.30;99.90
1361;DHT22;674;45.552;-122.600;2024-02-26T08:01:13;6.20;99.90
1361;DHT22;674;45.552;-122.600;2024-02-26T08:03:42;6.30;99.90
1361;DHT22;674;45.552;-122.600;2024-02-26T08:06:11;6.10;99.90
1361;DHT22;674;45.552;-122.600;2024-02-26T08:08:40;6.00;99.90
1361;DHT22;674;45.552;-122.600;2024-02-26T08:11:09;6.30;99.90
1361;DHT22;674;45.552;-122.600;2024-02-26T08:13:37;5.90;99.90
1361;DHT22;674;45.552;-122.600;2024-02-26T08:16:06;5.90;99.90
1361;DHT22;674;45.552;-122.600;2024-02-26T08:18:34;5.70;99.90
1361;DHT22;674;45.552;-122.600;2024-02-26T08:21:03;5.80;99.90
1361;DHT22;674;45.552;-122.600;2024-02-26T08:23:32;5.90;99.90
1361;DHT22;674;45.552;-122.600;2024-02-26T08:26:00;5.60;99.90
1361;DHT22;674;45.552;-122.600;2024-02-26T08:28:29;5.60;99.90
1361;DHT22;674;45.552;-122.600;2024-02-26T08:30:57;5.60;99.90
1361;DHT22;674;45.552;-122.600;2024-02-26T08:33:26;5.60;99.90
1361;DHT22;674;45.552;-122.600;2024-02-26T08:35:55;5.90;99.90
1361;DHT22;674;45.552;-122.600;2024-02-26T08:38:24;5.90;99.90
1361;DHT22;674;45.552;-122.600;2024-02-26T08:40:52;5.30;99.90
1361;DHT22;674;45.552;-122.600;2024-02-26T08:43:21;5.70;99.90
1361;DHT22;674;45.552;-122.600;2024-02-26T08:45:49;5.60;99.90
1361;DHT22;674;45.552;-122.600;2024-02-26T08:48:18;5.50;99.90
1361;DHT22;674;45.552;-122.600;2024-02-26T08:50:46;5.60;99.90
1361;DHT22;674;45.552;-122.600;2024-02-26T08:53:15;5.60;99.90
1361;DHT22;674;45.552;-122.600;2024-02-26T08:55:53;5.50;99.90
1361;DHT22;674;45.552;-122.600;2024-02-26T08:58:22;5.50;99.90
1361;DHT22;674;45.552;-122.600;2024-02-26T09:00:50;5.50;99.90
1361;DHT22;674;45.552;-122.600;2024-02-26T09:03:19;5.60;99.90
1361;DHT22;674;45.552;-122.600;2024-02-26T09:05:48;5.60;99.90
1361;DHT22;674;45.552;-122.600;2024-02-26T09:08:16;5.40;99.90
1361;DHT22;674;45.552;-122.600;2024-02-26T09:10:45;5.30;99.90
1361;DHT22;674;45.552;-122.600;2024-02-26T09:13:14;5.90;99.90
1361;DHT22;674;45.552;-122.600;2024-02-26T09:15:42;5.90;99.90
1361;DHT22;674;45.552;-122.600;2024-02-26T09:18:11;5.90;99.90
1361;DHT22;674;45.552;-122.600;2024-02-26T09:20:39;5.90;99.90
1361;DHT22;674;45.552;-122.600;2024-02-26T09:23:09;6.00;99.90
1361;DHT22;674;45.552;-122.600;2024-02-26T09:25:38;5.90;99.90
1361;DHT22;674;45.552;-122.600;2024-02-26T09:28:06;5.90;99.90
1361;DHT22;674;45.552;-122.600;2024-02-26T09:30:35;5.90;99.90
1361;DHT22;674;45.552;-122.600;2024-02-26T09:33:04;5.90;99.90
1361;DHT22;674;45.552;-122.600;2024-02-26T09:35:32;5.60;99.90
1361;DHT22;674;45.552;-122.600;2024-02-26T09:38:02;5.90;99.90
1361;DHT22;674;45.552;-122.600;2024-02-26T09:40:31;5.90;99.90
1361;DHT22;674;45.552;-122.600;2024-02-26T09:43:00;6.00;99.90
1361;DHT22;674;45.552;-122.600;2024-02-26T09:45:33;5.90;99.90
1361;DHT22;674;45.552;-122.600;2024-02-26T09:48:03;6.20;99.90
1361;DHT22;674;45.552;-122.600;2024-02-26T09:50:33;5.80;99.90
1361;DHT22;674;45.552;-122.600;2024-02-26T09:53:01;5.90;99.90
1361;DHT22;674;45.552;-122.600;2024-02-26T09:55:30;5.80;99.90
1361;DHT22;674;45.552;-122.600;2024-02-26T09:57:59;5.80;99.90
1361;DHT22;674;45.552;-122.600;2024-02-26T10:00:31;5.70;99.90
1361;DHT22;674;45.552;-122.600;2024-02-26T10:03:04;6.00;99.90
1361;DHT22;674;45.552;-122.600;2024-02-26T10:05:33;5.90;99.90
1361;DHT22;674;45.552;-122.600;2024-02-26T10:08:03;6.00;99.90
1361;DHT22;674;45.552;-122.600;2024-02-26T10:10:33;5.50;99.90
1361;DHT22;674;45.552;-122.600;2024-02-26T10:13:02;5.70;99.90
1361;DHT22;674;45.552;-122.600;2024-02-26T10:15:31;5.70;99.90
1361;DHT22;674;45.552;-122.600;2024-02-26T10:18:03;5.70;99.90
1361;DHT22;674;45.552;-122.600;2024-02-26T10:20:31;5.50;99.90
1361;DHT22;674;45.552;-122.600;2024-02-26T10:23:04;5.90;99.90
1361;DHT22;674;45.552;-122.600;2024-02-26T10:25:33;5.40;99.90
1361;DHT22;674;45.552;-122.600;2024-02-26T10:28:02;5.40;99.90
1361;DHT22;674;45.552;-122.600;2024-02-26T10:30:30;5.40;99.90
1361;DHT22;674;45.552;-122.600;2024-02-26T10:32:59;5.40;99.90
1361;DHT22;674;45.552;-122.600;2024-02-26T10:35:28;5.40;99.90
1361;DHT22;674;45.552;-122.600;2024-02-26T10:37:56;5.40;99.90
1361;DHT22;674;45.552;-122.600;2024-02-26T10:40:25;5.60;99.90
1361;DHT22;674;45.552;-122.600;2024-02-26T10:42:54;5.10;99.90
1361;DHT22;674;45.552;-122.600;2024-02-26T10:45:22;5.40;99.90
1361;DHT22;674;45.552;-122.600;2024-02-26T10:47:51;5.30;99.90
1361;DHT22;674;45.552;-122.600;2024-02-26T10:50:20;5.50;99.90
1361;DHT22;674;45.552;-122.600;2024-02-26T10:52:48;5.50;99.90
1361;DHT22;674;45.552;-122.600;2024-02-26T10:55:17;5.50;99.90
1361;DHT22;674;45.552;-122.600;2024-02-26T10:57:48;5.50;99.90
1361;DHT22;674;45.552;-122.600;2024-02-26T11:00:19;5.50;99.90
1361;DHT22;674;45.552;-122.600;2024-02-26T11:02:48;5.30;99.90
1361;DHT22;674;45.552;-122.600;2024-02-26T11:05:17;5.40;99.90
1361;DHT22;674;45.552;-122.600;2024-02-26T11:07:47;5.60;99.90
1361;DHT22;674;45.552;-122.600;2024-02-26T11:10:17;5.20;99.90
1361;DHT22;674;45.552;-122.600;2024-02-26T11:12:46;5.20;99.90
1361;DHT22;674;45.552;-122.600;2024-02-26T11:15:17;5.50;99.90
1361;DHT22;674;45.552;-122.600;2024-02-26T11:17:46;5.20;99.90
1361;DHT22;674;45.552;-122.600;2024-02-26T11:20:17;5.00;99.90
1361;DHT22;674;45.552;-122.600;2024-02-26T11:22:47;4.70;99.90
1361;DHT22;674;45.552;-122.600;2024-02-26T11:25:16;4.40;99.90
1361;DHT22;674;45.552;-122.600;2024-02-26T11:28:14;4.40;99.90
1361;DHT22;674;45.552;-122.600;2024-02-26T11:30:47;4.70;99.90
1361;DHT22;674;45.552;-122.600;2024-02-26T11:33:16;4.40;99.90
1361;DHT22;674;45.552;-122.600;2024-02-26T11:35:45;4.60;99.90
1361;DHT22;674;45.552;-122.600;2024-02-26T11:38:20;4.40;99.90
1361;DHT22;674;45.552;-122.600;2024-02-26T11:40:53;4.60;99.90
1361;DHT22;674;45.552;-122.600;2024-02-26T11:46:43;4.10;99.90
1361;DHT22;674;45.552;-122.600;2024-02-26T11:51:57;4.10;99.90
1361;DHT22;674;45.552;-122.600;2024-02-26T11:54:53;4.40;99.90
1361;DHT22;674;45.552;-122.600;2024-02-26T12:00:13;4.30;99.90
1361;DHT22;674;45.552;-122.600;2024-02-26T12:02:51;4.30;99.90
1361;DHT22;674;45.552;-122.600;2024-02-26T12:05:26;4.10;99.90
1361;DHT22;674;45.552;-122.600;2024-02-26T12:08:04;4.30;99.90
1361;DHT22;674;45.552;-122.600;2024-02-26T12:10:39;4.50;99.90
1361;DHT22;674;45.552;-122.600;2024-02-26T12:13:12;4.60;99.90
1361;DHT22;674;45.552;-122.600;2024-02-26T12:15:57;4.40;99.90
1361;DHT22;674;45.552;-122.600;2024-02-26T12:18:27;4.30;99.90
1361;DHT22;674;45.552;-122.600;2024-02-26T12:21:02;4.40;99.90
1361;DHT22;674;45.552;-122.600;2024-02-26T12:23:32;4.40;99.90
1361;DHT22;674;45.552;-122.600;2024-02-26T12:26:00;4.40;99.90
1361;DHT22;674;45.552;-122.600;2024-02-26T12:28:33;4.70;99.90
1361;DHT22;674;45.552;-122.600;2024-02-26T12:31:02;4.80;99.90
1361;DHT22;674;45.552;-122.600;2024-02-26T12:33:32;4.70;99.90
1361;DHT22;674;45.552;-122.600;2024-02-26T12:36:01;5.00;99.90
1361;DHT22;674;45.552;-122.600;2024-02-26T12:38:29;4.70;99.90
1361;DHT22;674;45.552;-122.600;2024-02-26T12:40:58;4.90;99.90
1361;DHT22;674;45.552;-122.600;2024-02-26T12:43:27;4.70;99.90
1361;DHT22;674;45.552;-122.600;2024-02-26T12:45:56;4.90;99.90
1361;DHT22;674;45.552;-122.600;2024-02-26T12:48:25;4.90;99.90
1361;DHT22;674;45.552;-122.600;2024-02-26T12:50:54;4.70;99.90
1361;DHT22;674;45.552;-122.600;2024-02-26T12:53:24;4.70;99.90
1361;DHT22;674;45.552;-122.600;2024-02-26T12:55:56;4.90;99.90
1361;DHT22;674;45.552;-122.600;2024-02-26T12:58:25;4.70;99.90
1361;DHT22;674;45.552;-122.600;2024-02-26T13:00:56;4.90;99.90
1361;DHT22;674;45.552;-122.600;2024-02-26T13:03:24;4.70;99.90
1361;DHT22;674;45.552;-122.600;2024-02-26T13:05:54;4.70;99.90
1361;DHT22;674;45.552;-122.600;2024-02-26T13:08:23;5.00;99.90
1361;DHT22;674;45.552;-122.600;2024-02-26T13:10:52;4.70;99.90
1361;DHT22;674;45.552;-122.600;2024-02-26T13:13:22;4.70;99.90
1361;DHT22;674;45.552;-122.600;2024-02-26T13:16:04;4.70;99.90
1361;DHT22;674;45.552;-122.600;2024-02-26T13:18:34;4.70;99.90
1361;DHT22;674;45.552;-122.600;2024-02-26T13:21:09;4.60;99.90
1361;DHT22;674;45.552;-122.600;2024-02-26T13:23:39;4.70;99.90
1361;DHT22;674;45.552;-122.600;2024-02-26T13:26:09;4.90;99.90
1361;DHT22;674;45.552;-122.600;2024-02-26T13:28:40;4.40;99.90
1361;DHT22;674;45.552;-122.600;2024-02-26T13:31:08;4.40;99.90
1361;DHT22;674;45.552;-122.600;2024-02-26T13:33:37;4.50;99.90
1361;DHT22;674;45.552;-122.600;2024-02-26T13:36:06;4.30;99.90
1361;DHT22;674;45.552;-122.600;2024-02-26T13:38:35;4.40;99.90
1361;DHT22;674;45.552;-122.600;2024-02-26T13:41:05;4.10;99.90
1361;DHT22;674;45.552;-122.600;2024-02-26T13:43:34;4.40;99.90
1361;DHT22;674;45.552;-122.600;2024-02-26T13:46:02;4.30;99.90
1361;DHT22;674;45.552;-122.600;2024-02-26T13:48:31;4.30;99.90
1361;DHT22;674;45.552;-122.600;2024-02-26T13:51:00;4.50;99.90
1361;DHT22;674;45.552;-122.600;2024-02-26T13:53:28;4.40;99.90
1361;DHT22;674;45.552;-122.600;2024-02-26T13:56:01;4.50;99.90
1361;DHT22;674;45.552;-122.600;2024-02-26T13:58:32;4.40;99.90
1361;DHT22;674;45.552;-122.600;2024-02-26T14:01:00;4.60;99.90
1361;DHT22;674;45.552;-122.600;2024-02-26T14:03:31;4.20;99.90
1361;DHT22;674;45.552;-122.600;2024-02-26T14:06:00;4.40;99.90
1361;DHT22;674;45.552;-122.600;2024-02-26T14:08:30;4.40;99.90
1361;DHT22;674;45.552;-122.600;2024-02-26T14:10:58;4.50;99.90
1361;DHT22;674;45.552;-122.600;2024-02-26T14:13:28;4.50;99.90
1361;DHT22;674;45.552;-122.600;2024-02-26T14:15:56;4.60;99.90
1361;DHT22;674;45.552;-122.600;2024-02-26T14:18:25;4.50;99.90
1361;DHT22;674;45.552;-122.600;2024-02-26T14:20:55;4.40;99.90
1361;DHT22;674;45.552;-122.600;2024-02-26T14:23:23;4.10;99.90
1361;DHT22;674;45.552;-122.600;2024-02-26T14:25:52;4.30;99.90
1361;DHT22;674;45.552;-122.600;2024-02-26T14:28:20;4.20;99.90
1361;DHT22;674;45.552;-122.600;2024-02-26T14:30:58;3.80;99.90
1361;DHT22;674;45.552;-122.600;2024-02-26T14:33:27;3.50;99.90
1361;DHT22;674;45.552;-122.600;2024-02-26T14:35:56;3.30;99.90
1361;DHT22;674;45.552;-122.600;2024-02-26T14:38:24;2.90;99.90
1361;DHT22;674;45.552;-122.600;2024-02-26T14:40:53;2.90;99.90
1361;DHT22;674;45.552;-122.600;2024-02-26T14:43:21;3.00;99.90
1361;DHT22;674;45.552;-122.600;2024-02-26T14:45:50;3.10;99.90
1361;DHT22;674;45.552;-122.600;2024-02-26T14:48:18;3.00;99.90
1361;DHT22;674;45.552;-122.600;2024-02-26T14:50:47;3.00;99.90
1361;DHT22;674;45.552;-122.600;2024-02-26T14:53:17;3.00;99.90
1361;DHT22;674;45.552;-122.600;2024-02-26T14:55:46;2.90;99.90
1361;DHT22;674;45.552;-122.600;2024-02-26T14:58:14;3.00;99.90
1361;DHT22;674;45.552;-122.600;2024-02-26T15:00:43;3.40;99.90
1361;DHT22;674;45.552;-122.600;2024-02-26T15:03:11;2.90;99.90
1361;DHT22;674;45.552;-122.600;2024-02-26T15:05:40;3.00;99.90
1361;DHT22;674;45.552;-122.600;2024-02-26T15:08:09;3.10;99.90
1361;DHT22;674;45.552;-122.600;2024-02-26T15:10:42;3.00;99.90
1361;DHT22;674;45.552;-122.600;2024-02-26T15:13:16;3.00;99.90
1361;DHT22;674;45.552;-122.600;2024-02-26T15:15:46;2.90;99.90
1361;DHT22;674;45.552;-122.600;2024-02-26T15:18:15;3.00;99.90
1361;DHT22;674;45.552;-122.600;2024-02-26T15:20:44;3.10;99.90
1361;DHT22;674;45.552;-122.600;2024-02-26T15:23:16;3.00;99.90
1361;DHT22;674;45.552;-122.600;2024-02-26T15:25:45;2.90;99.90
1361;DHT22;674;45.552;-122.600;2024-02-26T15:28:14;3.00;99.90
1361;DHT22;674;45.552;-122.600;2024-02-26T15:30:43;3.10;99.90
1361;DHT22;674;45.552;-122.600;2024-02-26T15:33:12;3.00;99.90
1361;DHT22;674;45.552;-122.600;2024-02-26T15:35:41;3.10;99.90
1361;DHT22;674;45.552;-122.600;2024-02-26T15:38:13;3.30;99.90
1361;DHT22;674;45.552;-122.600;2024-02-26T15:40:42;3.20;99.90
1361;DHT22;674;45.552;-122.600;2024-02-26T15:43:12;3.40;99.90
1361;DHT22;674;45.552;-122.600;2024-02-26T15:45:42;3.40;99.90
1361;DHT22;674;45.552;-122.600;2024-02-26T15:48:10;3.40;99.90
1361;DHT22;674;45.552;-122.600;2024-02-26T15:50:39;3.80;99.90
1361;DHT22;674;45.552;-122.600;2024-02-26T15:53:10;3.50;99.90
1361;DHT22;674;45.552;-122.600;2024-02-26T15:55:39;3.60;99.90
1361;DHT22;674;45.552;-122.600;2024-02-26T15:58:11;3.60;99.90
1361;DHT22;674;45.552;-122.600;2024-02-26T16:00:40;3.80;99.90
1361;DHT22;674;45.552;-122.600;2024-02-26T16:03:10;3.90;99.90
1361;DHT22;674;45.552;-122.600;2024-02-26T16:05:39;3.80;99.90
1361;DHT22;674;45.552;-122.600;2024-02-26T16:08:12;3.80;99.90